Time;durP1;ratioP1;P1;durP2;ratioP2;P2;SDS_P1;SDS_P2;PMS_P1;PMS_P2;Temp;Humidity;BMP_temperature;BMP_pressure;BME280_temperature;BME280_humidity;BME280_pressure;Samples;Min_cycle;Max_cycle;Signal;HPM_P1;HPM_P2
2023/12/07 00:01:43;;;;;;;80.68;28.50;;;;;;;;;;5051907;28;20090;-67
2023/12/07 00:04:08;;;;;;;48.22;20.88;;;;;;;;;;5051828;28;20027;-67
2023/12/07 00:06:34;;;;;;;116.10;38.55;;;;;;;;;;5051859;28;20028;-67
2023/12/07 00:09:00;;;;;;;112.30;35.10;;;;;;;;;;5051484;28;20021;-66
2023/12/07 00:11:26;;;;;;;86.82;28.17;;;;;;;;;;5051319;28;20165;-66
2023/12/07 00:13:52;;;;;;;90.68;30.58;;;;;;;;;;5051549;28;20033;-66
2023/12/07 00:16:17;;;;;;;119.47;38.33;;;;;;;;;;5051154;28;20029;-66
2023/12/07 00:18:43;;;;;;;76.90;28.20;;;;;;;;;;5050989;28;20488;-66
2023/12/07 00:21:09;;;;;;;114.60;36.60;;;;;;;;;;5051192;28;20070;-66
2023/12/07 00:23:34;;;;;;;111.18;36.30;;;;;;;;;;5051021;28;20560;-66
2023/12/07 00:25:59;;;;;;;116.05;36.38;;;;;;;;;;5047917;28;20029;-67
2023/12/07 00:28:25;;;;;;;53.55;22.27;;;;;;;;;;5051121;28;20424;-67
2023/12/07 00:30:50;;;;;;;98.97;33.90;;;;;;;;;;5051066;28;20082;-66
2023/12/07 00:33:16;;;;;;;110.07;35.08;;;;;;;;;;5050948;28;20374;-67
2023/12/07 00:35:42;;;;;;;113.68;35.92;;;;;;;;;;5050903;28;20029;-67
2023/12/07 00:38:08;;;;;;;62.85;28.35;;;;;;;;;;5051185;28;20025;-66
2023/12/07 00:40:36;;;;;;;74.65;29.70;;;;;;;;;;5051287;28;20013;-66
2023/12/07 00:43:03;;;;;;;98.05;31.88;;;;;;;;;;5054996;28;20036;-65
2023/12/07 00:45:28;;;;;;;67.90;25.60;;;;;;;;;;5054825;28;20024;-66
2023/12/07 00:47:54;;;;;;;121.25;36.55;;;;;;;;;;5054279;28;20032;-65
2023/12/07 00:50:19;;;;;;;90.28;30.05;;;;;;;;;;5054818;28;20025;-67
2023/12/07 00:52:45;;;;;;;118.68;34.88;;;;;;;;;;5054506;28;20052;-66
2023/12/07 00:55:10;;;;;;;56.28;30.33;;;;;;;;;;5053421;28;20091;-66
2023/12/07 00:57:36;;;;;;;57.53;28.08;;;;;;;;;;5054428;28;20025;-66
2023/12/07 01:00:01;;;;;;;84.80;26.65;;;;;;;;;;5054501;28;20035;-66
2023/12/07 01:02:27;;;;;;;101.45;33.10;;;;;;;;;;5054296;28;20041;-65
2023/12/07 01:04:53;;;;;;;116.30;37.35;;;;;;;;;;5054455;28;20040;-66
2023/12/07 01:07:18;;;;;;;116.57;37.45;;;;;;;;;;5051705;28;20024;-66
2023/12/07 01:09:43;;;;;;;36.45;17.85;;;;;;;;;;5054293;28;20028;-67
2023/12/07 01:12:09;;;;;;;118.00;35.95;;;;;;;;;;5053065;28;20021;-67
2023/12/07 01:14:34;;;;;;;124.53;39.65;;;;;;;;;;5054262;28;20062;-67
2023/12/07 01:17:00;;;;;;;60.25;21.52;;;;;;;;;;5052801;28;20025;-66
2023/12/07 01:19:26;;;;;;;102.15;33.03;;;;;;;;;;5053005;28;20386;-66
2023/12/07 01:21:51;;;;;;;131.25;36.60;;;;;;;;;;5053888;28;20032;-66
2023/12/07 01:24:16;;;;;;;89.22;29.60;;;;;;;;;;5054058;28;20025;-65
2023/12/07 01:26:42;;;;;;;50.83;22.63;;;;;;;;;;5054158;28;20032;-67
2023/12/07 01:29:08;;;;;;;135.57;42.50;;;;;;;;;;5054741;28;20052;-66
2023/12/07 01:31:33;;;;;;;130.02;39.35;;;;;;;;;;5054173;28;20111;-67
2023/12/07 01:33:59;;;;;;;132.25;38.70;;;;;;;;;;5054478;28;20055;-67
2023/12/07 01:36:24;;;;;;;52.63;22.20;;;;;;;;;;5054388;28;20067;-67
2023/12/07 01:38:50;;;;;;;123.90;36.10;;;;;;;;;;5054529;28;20024;-65
2023/12/07 01:41:15;;;;;;;131.38;40.80;;;;;;;;;;5054308;28;20474;-66
2023/12/07 01:43:47;;;;;;;66.93;26.48;;;;;;;;;;5073511;28;20347;-66
2023/12/07 01:46:13;;;;;;;108.60;37.83;;;;;;;;;;5073271;28;20113;-66
2023/12/07 01:48:39;;;;;;;135.38;37.00;;;;;;;;;;5054180;28;20398;-67
2023/12/07 01:51:06;;;;;;;93.90;30.73;;;;;;;;;;5054230;28;20029;-66
2023/12/07 01:53:31;;;;;;;97.90;34.60;;;;;;;;;;5053047;28;20455;-67
2023/12/07 01:55:57;;;;;;;91.03;30.00;;;;;;;;;;5054072;28;20108;-67
2023/12/07 01:58:23;;;;;;;91.47;32.00;;;;;;;;;;5054096;28;20025;-66
2023/12/07 02:00:49;;;;;;;130.85;39.70;;;;;;;;;;5053837;28;20416;-66
2023/12/07 02:03:16;;;;;;;118.53;36.28;;;;;;;;;;5053919;28;20029;-66
2023/12/07 02:05:46;;;;;;;113.47;34.40;;;;;;;;;;5053936;28;20371;-66
2023/12/07 02:08:12;;;;;;;129.38;39.75;;;;;;;;;;5053907;28;20025;-66
2023/12/07 02:10:37;;;;;;;106.50;33.88;;;;;;;;;;5053737;28;20040;-66
2023/12/07 02:13:03;;;;;;;126.40;40.75;;;;;;;;;;5053792;28;20112;-66
2023/12/07 02:15:29;;;;;;;36.22;19.50;;;;;;;;;;5053441;28;20474;-66
2023/12/07 02:18:09;;;;;;;132.82;39.75;;;;;;;;;;5053672;28;20082;-66
2023/12/07 02:20:42;;;;;;;75.38;32.67;;;;;;;;;;5053668;28;20029;-66
2023/12/07 02:23:08;;;;;;;110.75;31.80;;;;;;;;;;5052302;28;20103;-66
2023/12/07 02:25:40;;;;;;;125.32;37.30;;;;;;;;;;5053326;28;20107;-66
2023/12/07 02:28:05;;;;;;;116.93;36.92;;;;;;;;;;5053464;28;20021;-66
2023/12/07 02:30:30;;;;;;;117.32;35.38;;;;;;;;;;5051765;28;20029;-66
2023/12/07 02:32:56;;;;;;;124.97;38.92;;;;;;;;;;5053282;28;20025;-66
2023/12/07 02:35:22;;;;;;;131.07;39.35;;;;;;;;;;5053057;28;20032;-66
2023/12/07 02:37:51;;;;;;;150.13;43.03;;;;;;;;;;5053311;28;20061;-66
2023/12/07 02:40:23;;;;;;;72.65;28.55;;;;;;;;;;5053207;28;20033;-66
2023/12/07 02:42:49;;;;;;;134.82;39.35;;;;;;;;;;5065051;28;20039;-66
2023/12/07 02:45:15;;;;;;;145.70;43.58;;;;;;;;;;5072762;28;20025;-66
2023/12/07 02:47:43;;;;;;;142.88;39.05;;;;;;;;;;5059947;28;20512;-66
2023/12/07 02:50:09;;;;;;;53.25;21.52;;;;;;;;;;5053016;28;20033;-66
2023/12/07 02:52:35;;;;;;;99.45;30.25;;;;;;;;;;5052833;28;20490;-66
2023/12/07 02:55:02;;;;;;;89.50;29.23;;;;;;;;;;5052891;28;20039;-66
2023/12/07 02:57:28;;;;;;;156.45;43.30;;;;;;;;;;5052565;28;20082;-66
2023/12/07 02:59:53;;;;;;;146.32;43.03;;;;;;;;;;5052765;28;20432;-66
2023/12/07 03:02:19;;;;;;;151.07;43.65;;;;;;;;;;5052879;28;20017;-66
2023/12/07 03:04:44;;;;;;;135.05;40.30;;;;;;;;;;5052631;28;20028;-65
2023/12/07 03:07:09;;;;;;;104.13;33.67;;;;;;;;;;5052741;28;20028;-66
2023/12/07 03:09:35;;;;;;;131.30;37.92;;;;;;;;;;5052608;28;20032;-65
2023/12/07 03:12:00;;;;;;;142.07;39.30;;;;;;;;;;5052393;28;20033;-66
2023/12/07 03:14:26;;;;;;;90.00;30.13;;;;;;;;;;5052790;28;20021;-66
2023/12/07 03:16:51;;;;;;;150.27;40.72;;;;;;;;;;5052743;28;20029;-66
2023/12/07 03:19:16;;;;;;;154.70;41.70;;;;;;;;;;5052581;28;20087;-66
2023/12/07 03:21:45;;;;;;;152.68;42.00;;;;;;;;;;5052552;28;20462;-66
2023/12/07 03:24:10;;;;;;;149.20;42.28;;;;;;;;;;5052745;28;20493;-66
2023/12/07 03:26:36;;;;;;;134.55;38.28;;;;;;;;;;5052380;28;20045;-66
2023/12/07 03:29:02;;;;;;;136.88;36.88;;;;;;;;;;5052380;28;20075;-66
2023/12/07 03:31:28;;;;;;;152.68;40.30;;;;;;;;;;5052307;28;20029;-66
2023/12/07 03:33:54;;;;;;;138.60;40.03;;;;;;;;;;5052460;28;20033;-66
2023/12/07 03:36:20;;;;;;;156.18;42.50;;;;;;;;;;5052025;28;20045;-66
2023/12/07 03:38:45;;;;;;;93.63;27.15;;;;;;;;;;5052203;28;20103;-66
2023/12/07 03:41:11;;;;;;;158.93;42.08;;;;;;;;;;5052362;28;20443;-66
2023/12/07 03:43:36;;;;;;;113.13;33.78;;;;;;;;;;5070851;28;20020;-66
2023/12/07 03:46:05;;;;;;;85.75;27.27;;;;;;;;;;5072533;28;20393;-66
2023/12/07 03:48:31;;;;;;;140.05;39.55;;;;;;;;;;5052400;28;20398;-66
2023/12/07 03:50:57;;;;;;;79.70;27.05;;;;;;;;;;5052208;28;20021;-66
2023/12/07 03:53:22;;;;;;;90.47;29.77;;;;;;;;;;5051785;28;20552;-66
2023/12/07 03:55:47;;;;;;;117.60;35.80;;;;;;;;;;5051862;28;20025;-66
2023/12/07 03:58:13;;;;;;;141.88;37.72;;;;;;;;;;5052295;28;20086;-66
2023/12/07 04:00:39;;;;;;;148.63;42.00;;;;;;;;;;5052013;28;20103;-65
2023/12/07 04:03:05;;;;;;;120.47;36.88;;;;;;;;;;5052058;28;20057;-67
2023/12/07 04:05:31;;;;;;;143.80;39.28;;;;;;;;;;5052282;28;20033;-67
2023/12/07 04:07:57;;;;;;;147.30;46.15;;;;;;;;;;5052226;28;20047;-66
2023/12/07 04:10:22;;;;;;;154.13;43.72;;;;;;;;;;5051894;28;20025;-67
2023/12/07 04:12:48;;;;;;;103.85;34.72;;;;;;;;;;5052029;28;20025;-67
2023/12/07 04:15:13;;;;;;;150.70;42.90;;;;;;;;;;5052070;28;20029;-67
2023/12/07 04:17:39;;;;;;;126.28;40.13;;;;;;;;;;5053881;28;20029;-66
2023/12/07 04:20:05;;;;;;;144.15;40.60;;;;;;;;;;5055890;28;20029;-66
2023/12/07 04:22:31;;;;;;;159.43;39.15;;;;;;;;;;5055698;28;20028;-66
2023/12/07 04:24:56;;;;;;;93.22;30.77;;;;;;;;;;5055521;28;20089;-66
2023/12/07 04:27:21;;;;;;;134.02;37.58;;;;;;;;;;5055568;28;20116;-66
2023/12/07 04:29:47;;;;;;;158.30;45.25;;;;;;;;;;5055635;28;20029;-66
2023/12/07 04:32:12;;;;;;;122.93;36.88;;;;;;;;;;5055505;28;20482;-66
2023/12/07 04:34:38;;;;;;;143.07;41.22;;;;;;;;;;5055482;28;20021;-66
2023/12/07 04:37:03;;;;;;;135.35;40.25;;;;;;;;;;5055270;28;20067;-67
2023/12/07 04:39:29;;;;;;;138.18;39.95;;;;;;;;;;5054812;28;20033;-67
2023/12/07 04:41:54;;;;;;;147.60;40.35;;;;;;;;;;5059802;28;20032;-67
2023/12/07 04:44:20;;;;;;;121.43;36.53;;;;;;;;;;5075727;28;20025;-67
2023/12/07 04:46:46;;;;;;;149.40;40.67;;;;;;;;;;5070117;28;20033;-66
2023/12/07 04:49:11;;;;;;;148.38;42.13;;;;;;;;;;5055305;28;20386;-66
2023/12/07 04:51:36;;;;;;;158.55;43.28;;;;;;;;;;5053913;28;20021;-66
2023/12/07 04:54:02;;;;;;;157.57;41.00;;;;;;;;;;5054717;28;20435;-67
2023/12/07 04:56:27;;;;;;;147.18;39.30;;;;;;;;;;5055259;28;20032;-66
2023/12/07 04:58:53;;;;;;;129.43;37.50;;;;;;;;;;5054064;28;20044;-66
2023/12/07 05:01:21;;;;;;;161.60;43.08;;;;;;;;;;5054968;28;20059;-66
2023/12/07 05:03:47;;;;;;;150.27;42.28;;;;;;;;;;5055057;28;20032;-66
2023/12/07 05:06:12;;;;;;;107.50;33.25;;;;;;;;;;5054771;28;20033;-66
2023/12/07 05:08:39;;;;;;;155.50;41.90;;;;;;;;;;5053543;28;20108;-66
2023/12/07 05:11:06;;;;;;;163.05;43.85;;;;;;;;;;5054707;28;20163;-66
2023/12/07 05:13:33;;;;;;;166.45;43.08;;;;;;;;;;5055091;28;20021;-66
2023/12/07 05:15:59;;;;;;;134.35;39.80;;;;;;;;;;5054818;28;20024;-67
2023/12/07 05:18:25;;;;;;;147.38;42.78;;;;;;;;;;5054665;28;20065;-67
2023/12/07 05:20:50;;;;;;;159.40;44.58;;;;;;;;;;5054693;28;20099;-66
2023/12/07 05:23:16;;;;;;;152.50;40.95;;;;;;;;;;5054454;28;20071;-67
2023/12/07 05:25:41;;;;;;;150.13;42.47;;;;;;;;;;5054336;28;20029;-65
2023/12/07 05:28:07;;;;;;;141.95;38.83;;;;;;;;;;5053925;28;20025;-65
2023/12/07 05:30:32;;;;;;;147.32;42.75;;;;;;;;;;5054329;28;20024;-66
2023/12/07 05:32:58;;;;;;;135.18;40.13;;;;;;;;;;5054592;28;20021;-65
2023/12/07 05:35:23;;;;;;;146.32;43.55;;;;;;;;;;5054283;28;20052;-66
2023/12/07 05:37:49;;;;;;;159.30;42.33;;;;;;;;;;5054095;28;20031;-66
2023/12/07 05:40:15;;;;;;;157.95;43.97;;;;;;;;;;5054414;28;20025;-66
2023/12/07 05:42:41;;;;;;;153.23;41.38;;;;;;;;;;5065067;28;20016;-66
2023/12/07 05:45:07;;;;;;;136.15;38.47;;;;;;;;;;5074399;28;20334;-66
2023/12/07 05:47:32;;;;;;;155.98;42.20;;;;;;;;;;5062369;28;20078;-66
2023/12/07 05:49:59;;;;;;;142.25;39.72;;;;;;;;;;5054034;28;20146;-66
2023/12/07 05:52:25;;;;;;;163.48;41.95;;;;;;;;;;5053603;28;20139;-66
2023/12/07 05:54:50;;;;;;;144.75;41.42;;;;;;;;;;5052818;28;20051;-67
2023/12/07 05:57:16;;;;;;;130.27;39.60;;;;;;;;;;5054036;28;20104;-66
2023/12/07 05:59:43;;;;;;;135.32;40.35;;;;;;;;;;5053900;28;20032;-67
2023/12/07 06:02:08;;;;;;;138.15;37.75;;;;;;;;;;5053818;28;20028;-66
2023/12/07 06:04:34;;;;;;;62.15;29.67;;;;;;;;;;5053938;28;20028;-66
2023/12/07 06:06:59;;;;;;;93.55;29.73;;;;;;;;;;5053705;28;20474;-66
2023/12/07 06:09:25;;;;;;;63.38;23.77;;;;;;;;;;5053619;28;20029;-66
2023/12/07 06:11:51;;;;;;;141.93;41.17;;;;;;;;;;5053569;28;20025;-67
2023/12/07 06:14:16;;;;;;;144.85;42.33;;;;;;;;;;5053548;28;20024;-67
2023/12/07 06:16:42;;;;;;;104.60;32.45;;;;;;;;;;5053535;28;20431;-67
2023/12/07 06:19:07;;;;;;;109.53;34.92;;;;;;;;;;5053586;28;20046;-66
2023/12/07 06:21:33;;;;;;;61.60;22.60;;;;;;;;;;5052949;28;20079;-66
2023/12/07 06:24:01;;;;;;;119.78;30.83;;;;;;;;;;5053264;28;20057;-66
2023/12/07 06:26:26;;;;;;;127.70;37.08;;;;;;;;;;5053549;28;20119;-66
2023/12/07 06:28:52;;;;;;;105.40;29.45;;;;;;;;;;5053468;28;20063;-66
2023/12/07 06:31:21;;;;;;;160.13;42.20;;;;;;;;;;5053300;28;20051;-65
2023/12/07 06:33:47;;;;;;;124.50;36.60;;;;;;;;;;5053369;28;20036;-65
2023/12/07 06:36:23;;;;;;;156.10;41.33;;;;;;;;;;5051502;28;20191;-66
2023/12/07 06:38:49;;;;;;;165.18;44.00;;;;;;;;;;5052953;28;20112;-65
2023/12/07 06:41:18;;;;;;;163.25;43.80;;;;;;;;;;5052474;28;20115;-66
2023/12/07 06:43:44;;;;;;;160.80;43.33;;;;;;;;;;5072406;28;20119;-66
2023/12/07 06:46:12;;;;;;;157.77;39.22;;;;;;;;;;5072540;28;20459;-66
2023/12/07 06:48:37;;;;;;;107.80;31.55;;;;;;;;;;5052842;28;20036;-66
2023/12/07 06:51:03;;;;;;;150.32;40.60;;;;;;;;;;5052778;28;20374;-66
2023/12/07 06:53:29;;;;;;;114.28;35.00;;;;;;;;;;5052730;28;20056;-66
2023/12/07 06:55:54;;;;;;;135.48;36.60;;;;;;;;;;5052934;28;20021;-66
2023/12/07 06:58:20;;;;;;;146.50;40.63;;;;;;;;;;5052639;28;20433;-66
2023/12/07 07:00:45;;;;;;;155.98;42.05;;;;;;;;;;5052801;28;20060;-66
2023/12/07 07:03:10;;;;;;;154.20;42.22;;;;;;;;;;5052758;28;20025;-66
2023/12/07 07:05:36;;;;;;;171.27;44.53;;;;;;;;;;5051341;28;20056;-66
2023/12/07 07:08:01;;;;;;;145.20;41.90;;;;;;;;;;5052563;28;20033;-66
2023/12/07 07:10:27;;;;;;;153.75;40.55;;;;;;;;;;5052797;28;20032;-65
2023/12/07 07:12:52;;;;;;;146.00;41.50;;;;;;;;;;5052543;28;20525;-65
2023/12/07 07:15:18;;;;;;;147.18;40.38;;;;;;;;;;5052483;28;20024;-65
2023/12/07 07:17:43;;;;;;;173.93;44.10;;;;;;;;;;5052538;28;20135;-65
2023/12/07 07:20:09;;;;;;;145.50;44.35;;;;;;;;;;5051137;28;20382;-65
2023/12/07 07:22:35;;;;;;;145.70;42.67;;;;;;;;;;5051331;28;20028;-65
2023/12/07 07:25:00;;;;;;;136.98;41.05;;;;;;;;;;5052368;28;20474;-65
2023/12/07 07:27:26;;;;;;;124.38;35.38;;;;;;;;;;5052557;28;20032;-65
2023/12/07 07:29:52;;;;;;;142.05;42.90;;;;;;;;;;5052316;28;20506;-65
2023/12/07 07:32:17;;;;;;;137.45;38.72;;;;;;;;;;5052519;28;20455;-65
2023/12/07 07:34:43;;;;;;;143.93;41.15;;;;;;;;;;5051964;28;20029;-65
2023/12/07 07:37:08;;;;;;;139.90;41.00;;;;;;;;;;5052134;28;20087;-65
2023/12/07 07:39:34;;;;;;;93.65;29.35;;;;;;;;;;5039292;28;20037;-66
2023/12/07 07:42:00;;;;;;;139.35;43.75;;;;;;;;;;5037975;28;20029;-65
2023/12/07 07:44:25;;;;;;;53.20;21.40;;;;;;;;;;5055105;28;20016;-66
2023/12/07 07:46:51;;;;;;;103.60;30.88;;;;;;;;;;5052842;28;20475;-66
2023/12/07 07:49:16;;;;;;;101.00;31.55;;;;;;;;;;5031931;28;20029;-66
2023/12/07 07:51:41;;;;;;;121.45;38.15;;;;;;;;;;5035315;28;20021;-66
2023/12/07 07:54:08;;;;;;;146.52;44.67;;;;;;;;;;5055905;28;20036;-66
2023/12/07 07:56:33;;;;;;;141.88;41.85;;;;;;;;;;5058580;28;20028;-66
2023/12/07 07:59:00;;;;;;;124.75;38.42;;;;;;;;;;5076187;28;20077;-66
2023/12/07 08:01:26;;;;;;;101.95;34.03;;;;;;;;;;5072498;28;20021;-66
2023/12/07 08:03:51;;;;;;;146.43;41.47;;;;;;;;;;5054584;28;20033;-65
2023/12/07 08:06:17;;;;;;;143.02;40.80;;;;;;;;;;5055803;28;20091;-67
2023/12/07 08:08:42;;;;;;;133.63;40.30;;;;;;;;;;5055872;28;20052;-66
2023/12/07 08:11:07;;;;;;;61.85;21.90;;;;;;;;;;5055824;28;20025;-65
2023/12/07 08:13:33;;;;;;;126.13;40.30;;;;;;;;;;5043102;28;20028;-65
2023/12/07 08:15:58;;;;;;;143.75;41.40;;;;;;;;;;5035571;28;20025;-65
2023/12/07 08:18:24;;;;;;;131.18;38.72;;;;;;;;;;5035468;28;20443;-65
2023/12/07 08:20:49;;;;;;;142.15;42.03;;;;;;;;;;5035626;28;20033;-66
2023/12/07 08:23:14;;;;;;;143.48;44.67;;;;;;;;;;5035694;28;20025;-65
2023/12/07 08:25:40;;;;;;;144.57;42.10;;;;;;;;;;5035754;28;20018;-65
2023/12/07 08:28:05;;;;;;;137.52;42.85;;;;;;;;;;5035324;28;20091;-66
2023/12/07 08:30:31;;;;;;;127.45;40.05;;;;;;;;;;5045181;28;20090;-68
2023/12/07 08:32:56;;;;;;;140.10;40.45;;;;;;;;;;5056623;28;20021;-66
2023/12/07 08:35:22;;;;;;;128.40;41.40;;;;;;;;;;5059215;28;20116;-66
2023/12/07 08:37:48;;;;;;;132.65;40.58;;;;;;;;;;5055145;28;20071;-66
2023/12/07 08:40:15;;;;;;;130.27;39.05;;;;;;;;;;5055306;28;20868;-66
2023/12/07 08:42:41;;;;;;;145.60;40.05;;;;;;;;;;5055064;28;20029;-66
2023/12/07 08:45:06;;;;;;;132.50;42.47;;;;;;;;;;5054994;28;20032;-66
2023/12/07 08:47:33;;;;;;;134.90;43.08;;;;;;;;;;5043258;28;20037;-66
2023/12/07 08:49:59;;;;;;;141.77;43.25;;;;;;;;;;5034965;28;20021;-66
2023/12/07 08:52:24;;;;;;;141.68;42.67;;;;;;;;;;5034826;28;20368;-66
2023/12/07 08:54:50;;;;;;;118.72;35.42;;;;;;;;;;5041711;28;20021;-66
2023/12/07 08:57:18;;;;;;;137.98;41.45;;;;;;;;;;5054943;28;20064;-67
2023/12/07 08:59:43;;;;;;;138.32;43.92;;;;;;;;;;5054843;28;20041;-66
2023/12/07 09:02:08;;;;;;;146.82;45.75;;;;;;;;;;5054543;28;20032;-66
2023/12/07 09:04:34;;;;;;;135.52;42.53;;;;;;;;;;5054524;28;20024;-66
2023/12/07 09:06:59;;;;;;;98.10;34.00;;;;;;;;;;5054601;28;20481;-66
2023/12/07 09:09:25;;;;;;;130.02;42.78;;;;;;;;;;5054716;28;20029;-66
2023/12/07 09:11:51;;;;;;;130.45;41.67;;;;;;;;;;5054652;28;20036;-66
2023/12/07 09:14:16;;;;;;;123.43;41.13;;;;;;;;;;5054302;28;20434;-66
2023/12/07 09:16:45;;;;;;;99.55;36.42;;;;;;;;;;5054398;28;20083;-66
2023/12/07 09:19:14;;;;;;;103.10;33.58;;;;;;;;;;5054560;28;20398;-66
2023/12/07 09:21:40;;;;;;;115.97;39.33;;;;;;;;;;5051294;28;20454;-66
2023/12/07 09:24:06;;;;;;;121.35;39.55;;;;;;;;;;5034484;28;20388;-68
2023/12/07 09:26:32;;;;;;;127.32;40.00;;;;;;;;;;5034498;28;20116;-67
2023/12/07 09:28:57;;;;;;;137.98;42.95;;;;;;;;;;5034173;28;20108;-66
2023/12/07 09:31:23;;;;;;;127.88;39.40;;;;;;;;;;5051019;28;20526;-66
2023/12/07 09:33:48;;;;;;;124.18;41.30;;;;;;;;;;5061636;28;20389;-66
2023/12/07 09:36:18;;;;;;;120.50;40.63;;;;;;;;;;5061354;28;20363;-66
2023/12/07 09:38:44;;;;;;;123.85;41.67;;;;;;;;;;5054110;28;20032;-66
2023/12/07 09:41:10;;;;;;;116.60;40.50;;;;;;;;;;5054018;28;20090;-66
2023/12/07 09:43:35;;;;;;;136.05;43.08;;;;;;;;;;5033874;28;20033;-66
2023/12/07 09:46:01;;;;;;;119.80;40.40;;;;;;;;;;5033791;28;20407;-67
2023/12/07 09:48:26;;;;;;;101.43;33.10;;;;;;;;;;5033674;28;20100;-66
2023/12/07 09:50:55;;;;;;;133.02;40.38;;;;;;;;;;5033963;28;20037;-66
2023/12/07 09:53:20;;;;;;;104.78;36.50;;;;;;;;;;5033669;28;20068;-66
2023/12/07 09:55:46;;;;;;;118.80;41.25;;;;;;;;;;5034038;28;20052;-66
2023/12/07 09:58:12;;;;;;;121.18;40.95;;;;;;;;;;5033519;28;20104;-67
2023/12/07 10:00:37;;;;;;;79.65;29.60;;;;;;;;;;5033960;28;20468;-66
2023/12/07 10:03:04;;;;;;;125.88;40.60;;;;;;;;;;5033884;28;20467;-66
2023/12/07 10:05:29;;;;;;;109.43;38.05;;;;;;;;;;5033831;28;20025;-67
2023/12/07 10:07:55;;;;;;;115.47;37.38;;;;;;;;;;5033827;28;20040;-66
2023/12/07 10:10:20;;;;;;;123.72;40.97;;;;;;;;;;5033547;28;20037;-67
2023/12/07 10:12:51;;;;;;;126.45;40.53;;;;;;;;;;5033262;28;20041;-67
2023/12/07 10:15:22;;;;;;;104.32;36.33;;;;;;;;;;5035503;28;20028;-67
2023/12/07 10:17:51;;;;;;;;;;;;;;;;;;5053975;28;20072;-67
2023/12/07 10:20:18;;;;;;;103.20;35.42;;;;;;;;;;5053404;28;19923;-67
2023/12/07 10:22:45;;;;;;;115.05;38.70;;;;;;;;;;5053256;28;20021;-67
2023/12/07 10:25:11;;;;;;;103.80;37.05;;;;;;;;;;5053225;28;20108;-67
2023/12/07 10:27:39;;;;;;;108.72;38.42;;;;;;;;;;5052936;28;20036;-67
2023/12/07 10:30:06;;;;;;;113.20;39.42;;;;;;;;;;5052848;28;20052;-67
2023/12/07 10:32:36;;;;;;;114.70;40.50;;;;;;;;;;5053088;28;20025;-66
2023/12/07 10:35:01;;;;;;;114.35;40.10;;;;;;;;;;5069663;28;20373;-67
2023/12/07 10:37:27;;;;;;;101.28;35.83;;;;;;;;;;5053088;28;20040;-67
2023/12/07 10:39:52;;;;;;;114.60;40.10;;;;;;;;;;5053087;28;20017;-67
2023/12/07 10:42:23;;;;;;;102.18;37.72;;;;;;;;;;5052156;28;20431;-67
2023/12/07 10:44:51;;;;;;;87.45;32.35;;;;;;;;;;5052905;28;20024;-67
2023/12/07 10:47:18;;;;;;;98.60;36.95;;;;;;;;;;5043157;28;20120;-67
2023/12/07 10:49:46;;;;;;;104.47;37.42;;;;;;;;;;5032695;28;20104;-67
2023/12/07 10:52:16;;;;;;;92.55;36.05;;;;;;;;;;5031137;28;20205;-67
2023/12/07 10:54:45;;;;;;;99.43;37.05;;;;;;;;;;5032956;28;20030;-67
2023/12/07 10:57:15;;;;;;;99.43;35.55;;;;;;;;;;5033739;28;20402;-67
2023/12/07 10:59:44;;;;;;;89.50;35.30;;;;;;;;;;5052657;28;20028;-67
2023/12/07 11:02:12;;;;;;;107.03;35.90;;;;;;;;;;5052079;28;20025;-67
2023/12/07 11:04:41;;;;;;;110.78;37.13;;;;;;;;;;5052415;28;20025;-67
2023/12/07 11:07:12;;;;;;;73.93;27.35;;;;;;;;;;5034795;28;20055;-67
2023/12/07 11:09:42;;;;;;;94.72;34.55;;;;;;;;;;5052329;28;20067;-67
2023/12/07 11:12:35;;;;;;;98.75;35.90;;;;;;;;;;5052035;28;20025;-67
2023/12/07 11:15:01;;;;;;;116.55;38.90;;;;;;;;;;5049771;28;20033;-67
2023/12/07 11:17:27;;;;;;;121.63;41.80;;;;;;;;;;5052340;28;20040;-67
2023/12/07 11:19:52;;;;;;;117.07;38.17;;;;;;;;;;5052331;28;20064;-67
2023/12/07 11:22:18;;;;;;;85.97;33.33;;;;;;;;;;5051686;28;20427;-67
2023/12/07 11:24:54;;;;;;;90.32;34.40;;;;;;;;;;5052165;28;20071;-66
2023/12/07 11:27:20;;;;;;;89.90;32.05;;;;;;;;;;5051089;28;20025;-66
2023/12/07 11:29:48;;;;;;;85.72;33.25;;;;;;;;;;5052134;28;20096;-66
2023/12/07 11:32:13;;;;;;;91.40;34.78;;;;;;;;;;5051857;28;20025;-67
2023/12/07 11:34:43;;;;;;;85.05;32.70;;;;;;;;;;5067210;28;20359;-67
2023/12/07 11:37:10;;;;;;;64.40;25.05;;;;;;;;;;5050043;28;20394;-66
2023/12/07 11:39:37;;;;;;;80.55;28.10;;;;;;;;;;5049983;28;20029;-68
2023/12/07 11:42:19;;;;;;;81.82;31.75;;;;;;;;;;5048501;28;20056;-66
2023/12/07 11:44:51;;;;;;;85.28;30.33;;;;;;;;;;5050276;28;20092;-66
2023/12/07 11:47:18;;;;;;;95.45;32.15;;;;;;;;;;5040898;28;20041;-66
2023/12/07 11:49:44;;;;;;;87.65;31.42;;;;;;;;;;5030714;28;20029;-66
2023/12/07 11:52:18;;;;;;;89.47;32.85;;;;;;;;;;5031452;28;20095;-65
2023/12/07 11:54:47;;;;;;;94.65;31.38;;;;;;;;;;5030697;28;20025;-66
2023/12/07 11:57:14;;;;;;;90.20;33.90;;;;;;;;;;5031312;28;20036;-66
2023/12/07 11:59:40;;;;;;;99.15;34.55;;;;;;;;;;5030516;28;20084;-66
2023/12/07 12:02:05;;;;;;;95.32;33.22;;;;;;;;;;5031725;28;20029;-66
2023/12/07 12:04:31;;;;;;;90.05;32.10;;;;;;;;;;5031931;28;20025;-66
2023/12/07 12:06:56;;;;;;;87.90;33.63;;;;;;;;;;5031881;28;20029;-66
2023/12/07 12:09:24;;;;;;;90.10;33.60;;;;;;;;;;5031658;28;20027;-66
2023/12/07 12:11:50;;;;;;;89.93;32.33;;;;;;;;;;5032008;28;20032;-66
2023/12/07 12:14:19;;;;;;;90.15;32.30;;;;;;;;;;5046794;28;20025;-66
2023/12/07 12:16:46;;;;;;;91.30;31.77;;;;;;;;;;5046254;28;20035;-66
2023/12/07 12:19:13;;;;;;;82.93;31.52;;;;;;;;;;5051605;28;20057;-66
2023/12/07 12:21:38;;;;;;;84.55;31.42;;;;;;;;;;5051289;28;20486;-66
2023/12/07 12:24:05;;;;;;;89.13;33.03;;;;;;;;;;5051204;28;20075;-66
2023/12/07 12:26:33;;;;;;;73.90;27.95;;;;;;;;;;5051623;28;20433;-66
2023/12/07 12:29:00;;;;;;;87.45;29.50;;;;;;;;;;5051638;28;20025;-66
2023/12/07 12:31:25;;;;;;;85.30;30.33;;;;;;;;;;5051323;28;20028;-67
2023/12/07 12:33:51;;;;;;;71.50;25.63;;;;;;;;;;5060525;28;20381;-66
2023/12/07 12:36:21;;;;;;;72.60;27.42;;;;;;;;;;5058616;28;20492;-66
2023/12/07 12:38:50;;;;;;;75.60;28.23;;;;;;;;;;5053190;28;20104;-66
2023/12/07 12:41:19;;;;;;;82.13;31.65;;;;;;;;;;5054993;28;20033;-66
2023/12/07 12:43:45;;;;;;;80.10;29.92;;;;;;;;;;5055016;28;20435;-66
2023/12/07 12:46:11;;;;;;;79.40;28.48;;;;;;;;;;5054582;28;20104;-67
2023/12/07 12:48:37;;;;;;;73.32;27.67;;;;;;;;;;5035167;28;20021;-67
2023/12/07 12:51:13;;;;;;;88.40;30.10;;;;;;;;;;5035019;28;20447;-66
2023/12/07 12:53:48;;;;;;;74.72;29.08;;;;;;;;;;5034983;28;20053;-66
2023/12/07 12:56:15;;;;;;;89.38;33.38;;;;;;;;;;5034819;28;20045;-66
2023/12/07 12:58:40;;;;;;;74.03;28.63;;;;;;;;;;5035045;28;20025;-67
2023/12/07 13:01:07;;;;;;;66.95;24.88;;;;;;;;;;5035040;28;20029;-66
2023/12/07 13:03:36;;;;;;;79.95;29.40;;;;;;;;;;5034931;28;20084;-66
2023/12/07 13:06:01;;;;;;;90.20;31.60;;;;;;;;;;5034730;28;20053;-67
2023/12/07 13:08:27;;;;;;;82.82;31.58;;;;;;;;;;5034612;28;20056;-66
2023/12/07 13:10:52;;;;;;;73.53;30.48;;;;;;;;;;5034553;28;20059;-66
2023/12/07 13:13:18;;;;;;;83.10;29.55;;;;;;;;;;5034601;28;20026;-66
2023/12/07 13:15:43;;;;;;;83.38;29.35;;;;;;;;;;5034497;28;20025;-65
2023/12/07 13:18:08;;;;;;;79.10;29.95;;;;;;;;;;5034245;28;20033;-67
2023/12/07 13:20:38;;;;;;;68.07;26.90;;;;;;;;;;5034356;28;20088;-66
2023/12/07 13:23:04;;;;;;;82.68;30.83;;;;;;;;;;5034331;28;20037;-66
2023/12/07 13:25:29;;;;;;;83.65;30.90;;;;;;;;;;5034298;28;20414;-66
2023/12/07 13:27:55;;;;;;;74.28;28.45;;;;;;;;;;5034371;28;20037;-66
2023/12/07 13:30:21;;;;;;;88.43;32.22;;;;;;;;;;5042277;28;20028;-65
2023/12/07 13:32:47;;;;;;;78.93;29.58;;;;;;;;;;5054355;28;20056;-65
2023/12/07 13:35:13;;;;;;;81.65;29.65;;;;;;;;;;5070139;28;20112;-66
2023/12/07 13:37:38;;;;;;;75.68;29.25;;;;;;;;;;5053713;28;20119;-65
2023/12/07 13:40:09;;;;;;;66.95;25.60;;;;;;;;;;5053753;28;20439;-66
2023/12/07 13:42:35;;;;;;;69.85;27.25;;;;;;;;;;5053762;28;20124;-65
2023/12/07 13:45:01;;;;;;;80.50;28.05;;;;;;;;;;5054169;28;20086;-66
2023/12/07 13:47:31;;;;;;;65.53;25.58;;;;;;;;;;5043005;28;20068;-66
2023/12/07 13:50:00;;;;;;;70.95;25.83;;;;;;;;;;5031349;28;20025;-67
2023/12/07 13:52:26;;;;;;;79.32;30.17;;;;;;;;;;5033668;28;20045;-67
2023/12/07 13:54:54;;;;;;;75.30;29.40;;;;;;;;;;5033771;28;20079;-65
2023/12/07 13:57:20;;;;;;;71.88;28.65;;;;;;;;;;5033844;28;20033;-67
2023/12/07 13:59:46;;;;;;;75.88;28.42;;;;;;;;;;5049114;28;20548;-65
2023/12/07 14:02:12;;;;;;;72.00;28.70;;;;;;;;;;5038738;28;20029;-67
2023/12/07 14:04:38;;;;;;;75.60;27.73;;;;;;;;;;5053481;28;20025;-67